createdAt,value
2018-12-26T00:01:01.557Z,16.27
2018-12-26T00:03:29.967Z,18.07
2018-12-26T00:05:58.285Z,13.10
2018-12-26T00:08:26.594Z,14.23
2018-12-26T00:10:54.932Z,14.50
2018-12-26T00:13:23.276Z,16.67
2018-12-26T00:15:51.622Z,14.47
2018-12-26T00:18:20.115Z,16.20
2018-12-26T00:20:48.501Z,16.97
2018-12-26T00:23:16.820Z,17.00
2018-12-26T00:25:45.184Z,16.70
2018-12-26T00:28:13.910Z,16.83
2018-12-26T00:30:42.991Z,16.77
2018-12-26T00:33:11.480Z,17.13
2018-12-26T00:35:39.838Z,20.60
2018-12-26T00:38:08.177Z,15.65
2018-12-26T00:40:36.513Z,13.57
2018-12-26T00:43:04.836Z,15.67
2018-12-26T00:45:33.174Z,18.63
2018-12-26T00:48:01.504Z,15.20
2018-12-26T00:50:29.928Z,16.00
2018-12-26T00:52:58.232Z,17.43
2018-12-26T00:55:26.579Z,14.90
2018-12-26T00:57:54.913Z,16.93
2018-12-26T01:00:23.261Z,13.43
2018-12-26T01:02:51.572Z,14.07
2018-12-26T01:05:20.582Z,17.53
2018-12-26T01:07:48.961Z,14.90
2018-12-26T01:10:18.030Z,16.30
2018-12-26T01:12:46.324Z,15.50
2018-12-26T01:15:15.247Z,15.17
2018-12-26T01:17:43.550Z,15.93
2018-12-26T01:20:11.921Z,16.80
2018-12-26T01:22:40.253Z,15.78
2018-12-26T01:25:08.625Z,15.90
2018-12-26T01:27:36.965Z,17.32
2018-12-26T01:30:05.464Z,15.93
2018-12-26T01:32:33.917Z,16.60
2018-12-26T01:35:02.385Z,15.00
2018-12-26T01:37:30.724Z,14.90
2018-12-26T01:39:59.057Z,17.43
2018-12-26T01:42:27.401Z,17.40
2018-12-26T01:44:55.754Z,16.50
2018-12-26T01:47:25.242Z,18.33
2018-12-26T01:49:53.750Z,15.50
2018-12-26T01:52:22.185Z,17.80
2018-12-26T01:54:50.520Z,14.47
2018-12-26T01:57:18.868Z,15.53
2018-12-26T01:59:47.195Z,13.30
2018-12-26T02:02:15.603Z,16.60
2018-12-26T02:04:43.921Z,20.40
2018-12-26T02:07:12.883Z,18.77
2018-12-26T02:09:41.263Z,17.57
2018-12-26T02:12:09.585Z,14.17
2018-12-26T02:14:37.916Z,17.10
2018-12-26T02:17:06.278Z,14.73
2018-12-26T02:19:34.780Z,14.00
2018-12-26T02:22:03.160Z,21.47
2018-12-26T02:24:31.511Z,16.43
2018-12-26T02:27:00.552Z,14.73
2018-12-26T02:29:29.011Z,13.93
2018-12-26T02:31:57.366Z,22.23
2018-12-26T02:34:25.922Z,18.20
2018-12-26T02:36:54.265Z,15.80
2018-12-26T02:39:23.291Z,19.15
2018-12-26T02:41:51.639Z,18.00
2018-12-26T02:44:19.982Z,12.77
2018-12-26T02:46:48.321Z,16.40
2018-12-26T02:49:17.221Z,15.53
2018-12-26T02:51:45.585Z,18.53
2018-12-26T02:54:14.476Z,15.17
2018-12-26T02:56:47.779Z,16.80
2018-12-26T02:59:13.307Z,16.00
2018-12-26T03:01:41.702Z,17.07
2018-12-26T03:04:10.126Z,17.30
2018-12-26T03:06:38.458Z,18.40
2018-12-26T03:09:07.231Z,14.87
2018-12-26T03:11:35.618Z,17.95
2018-12-26T03:14:04.044Z,15.80
2018-12-26T03:16:32.377Z,17.80
2018-12-26T03:19:00.730Z,17.17
2018-12-26T03:21:29.088Z,16.43
2018-12-26T03:23:57.431Z,16.73
2018-12-26T03:26:25.780Z,16.50
2018-12-26T03:28:55.589Z,18.45
2018-12-26T03:31:23.921Z,15.57
2018-12-26T03:33:52.262Z,15.67
2018-12-26T03:36:20.754Z,17.27
2018-12-26T03:38:49.240Z,17.23
2018-12-26T03:41:17.673Z,16.65
2018-12-26T03:43:46.162Z,17.27
2018-12-26T03:46:14.590Z,15.90
2018-12-26T03:48:42.926Z,17.63
2018-12-26T03:51:11.615Z,17.70
2018-12-26T03:53:40.400Z,20.47
2018-12-26T03:56:08.772Z,17.40
2018-12-26T03:58:37.223Z,15.83
2018-12-26T04:01:05.566Z,18.57
2018-12-26T04:03:33.946Z,21.60
2018-12-26T04:06:02.360Z,18.73
2018-12-26T04:08:30.893Z,19.20
2018-12-26T04:10:59.256Z,18.70
2018-12-26T04:13:27.589Z,20.60
2018-12-26T04:15:56.122Z,20.33
2018-12-26T04:18:24.474Z,20.63
2018-12-26T04:20:52.998Z,18.05
2018-12-26T04:23:21.422Z,20.87
2018-12-26T04:25:50.116Z,21.47
2018-12-26T04:28:18.479Z,21.57
2018-12-26T04:30:47.684Z,22.50
2018-12-26T04:33:16.011Z,20.63
2018-12-26T04:35:44.430Z,23.77
2018-12-26T04:38:13.347Z,21.90
2018-12-26T04:40:41.699Z,25.43
2018-12-26T04:43:10.029Z,23.97
2018-12-26T04:45:38.385Z,23.42
2018-12-26T04:48:06.727Z,24.53
2018-12-26T04:50:35.124Z,22.83
2018-12-26T04:53:03.534Z,25.70
2018-12-26T04:55:31.882Z,25.62
2018-12-26T04:58:00.645Z,26.82
2018-12-26T05:00:29.017Z,28.83
2018-12-26T05:02:57.437Z,25.90
2018-12-26T05:05:25.795Z,27.57
2018-12-26T05:07:54.143Z,26.53
2018-12-26T05:10:22.518Z,26.70
2018-12-26T05:12:50.830Z,25.60
2018-12-26T05:15:20.198Z,23.87
2018-12-26T05:17:48.810Z,21.53
2018-12-26T05:20:18.261Z,24.00
2018-12-26T05:22:46.658Z,25.30
2018-12-26T05:25:16.218Z,26.83
2018-12-26T05:27:44.525Z,25.20
2018-12-26T05:30:13.099Z,23.60
2018-12-26T05:32:41.417Z,21.40
2018-12-26T05:35:09.782Z,23.53
2018-12-26T05:37:38.130Z,22.00
2018-12-26T05:40:06.804Z,22.47
2018-12-26T05:42:35.159Z,23.47
2018-12-26T05:45:03.750Z,31.00
2018-12-26T05:47:32.101Z,26.93
2018-12-26T05:50:00.461Z,21.23
2018-12-26T05:52:28.813Z,23.00
2018-12-26T05:54:57.138Z,25.27
2018-12-26T05:57:25.583Z,25.00
2018-12-26T05:59:53.917Z,27.27
2018-12-26T06:02:22.261Z,23.87
2018-12-26T06:04:50.606Z,25.97
2018-12-26T06:07:19.468Z,27.07
2018-12-26T06:09:47.841Z,24.70
2018-12-26T06:12:16.225Z,25.35
2018-12-26T06:14:44.587Z,25.27
2018-12-26T06:17:13.627Z,23.03
2018-12-26T06:19:41.953Z,32.30
2018-12-26T06:22:10.297Z,26.40
2018-12-26T06:24:38.626Z,32.40
2018-12-26T06:27:07.033Z,28.10
2018-12-26T06:29:35.385Z,29.50
2018-12-26T06:32:03.725Z,28.03
2018-12-26T06:34:32.075Z,26.57
2018-12-26T06:37:00.434Z,27.27
2018-12-26T06:39:28.786Z,26.90
2018-12-26T06:41:57.206Z,26.90
2018-12-26T06:44:25.628Z,29.00
2018-12-26T06:46:53.982Z,28.30
2018-12-26T06:49:22.481Z,26.97
2018-12-26T06:51:50.839Z,29.23
2018-12-26T06:54:19.461Z,28.13
2018-12-26T06:56:47.836Z,27.77
2018-12-26T06:59:16.890Z,32.20
2018-12-26T07:01:45.528Z,29.30
2018-12-26T07:04:13.909Z,31.33
2018-12-26T07:06:42.269Z,29.55
2018-12-26T07:09:10.656Z,35.93
2018-12-26T07:11:39.017Z,32.80
2018-12-26T07:14:07.555Z,29.83
2018-12-26T07:16:35.861Z,30.50
2018-12-26T07:19:04.228Z,25.50
2018-12-26T07:21:32.562Z,29.37
2018-12-26T07:24:00.921Z,27.13
2018-12-26T07:26:29.277Z,27.40
2018-12-26T07:28:57.605Z,25.97
2018-12-26T07:31:25.957Z,25.12
2018-12-26T07:33:54.351Z,30.10
2018-12-26T07:36:22.679Z,27.00
2018-12-26T07:38:51.048Z,28.55
2018-12-26T07:41:19.389Z,29.03
2018-12-26T07:43:49.222Z,27.90
2018-12-26T07:46:17.669Z,25.60
2018-12-26T07:48:46.010Z,33.90
2018-12-26T07:51:14.422Z,27.33
2018-12-26T07:53:42.844Z,30.13
2018-12-26T07:56:11.190Z,30.23
2018-12-26T07:58:39.551Z,34.30
2018-12-26T08:01:08.005Z,32.50
2018-12-26T08:03:36.325Z,40.47
2018-12-26T08:06:04.753Z,44.93
2018-12-26T08:08:33.090Z,32.07
2018-12-26T08:11:01.452Z,28.87
2018-12-26T08:13:29.784Z,29.20
2018-12-26T08:15:58.109Z,37.53
2018-12-26T08:18:26.433Z,32.73
2018-12-26T08:20:54.780Z,26.80
2018-12-26T08:23:23.117Z,28.35
2018-12-26T08:25:51.477Z,32.55
2018-12-26T08:28:26.504Z,27.67
2018-12-26T08:30:50.236Z,30.50
2018-12-26T08:33:18.557Z,30.65
2018-12-26T08:35:47.021Z,32.20
2018-12-26T08:38:16.264Z,31.45
2018-12-26T08:40:44.705Z,29.70
2018-12-26T08:43:13.057Z,32.37
2018-12-26T08:45:41.432Z,32.70
2018-12-26T08:48:10.096Z,27.80
2018-12-26T08:50:38.508Z,26.83
2018-12-26T08:53:06.976Z,29.83
2018-12-26T08:55:35.356Z,24.67
2018-12-26T08:58:03.839Z,22.23
2018-12-26T09:00:32.187Z,26.17
2018-12-26T09:03:00.526Z,28.30
2018-12-26T09:05:28.916Z,36.00
2018-12-26T09:07:57.305Z,28.53
2018-12-26T09:10:25.690Z,30.73
2018-12-26T09:12:54.077Z,30.00
2018-12-26T09:15:22.457Z,27.60
2018-12-26T09:17:50.841Z,31.10
2018-12-26T09:20:19.307Z,25.53
2018-12-26T09:22:47.659Z,32.10
2018-12-26T09:25:15.981Z,23.53
2018-12-26T09:27:44.344Z,30.10
2018-12-26T09:30:13.104Z,29.07
2018-12-26T09:32:41.453Z,36.13
2018-12-26T09:35:10.868Z,40.73
2018-12-26T09:37:39.223Z,28.83
2018-12-26T09:40:08.226Z,34.70
2018-12-26T09:42:36.844Z,40.30
2018-12-26T09:45:07.257Z,37.65
2018-12-26T09:47:35.637Z,34.30
2018-12-26T09:50:04.554Z,31.80
2018-12-26T09:52:33.491Z,34.80
2018-12-26T09:55:03.152Z,34.90
2018-12-26T09:57:32.154Z,29.95
2018-12-26T10:00:01.022Z,28.62
2018-12-26T10:02:29.630Z,34.23
2018-12-26T10:04:58.605Z,35.20
2018-12-26T10:07:27.554Z,35.43
2018-12-26T10:09:55.911Z,33.40
2018-12-26T10:12:24.253Z,42.73
2018-12-26T10:14:52.600Z,34.35
2018-12-26T10:17:20.941Z,37.60
2018-12-26T10:19:50.291Z,33.97
2018-12-26T10:22:19.166Z,36.87
2018-12-26T10:24:47.906Z,42.53
2018-12-26T10:27:16.945Z,41.47
2018-12-26T10:29:46.781Z,31.30
2018-12-26T10:32:15.742Z,31.50
2018-12-26T10:34:44.712Z,29.10
2018-12-26T10:37:13.578Z,30.23
2018-12-26T10:39:42.420Z,36.70
2018-12-26T10:42:11.642Z,31.93
2018-12-26T10:44:40.411Z,33.40
2018-12-26T10:47:09.322Z,32.05
2018-12-26T10:49:38.145Z,37.03
2018-12-26T10:52:06.937Z,37.93
2018-12-26T10:54:35.309Z,39.20
2018-12-26T10:57:04.177Z,35.53
2018-12-26T10:59:32.557Z,34.80
2018-12-26T11:02:01.419Z,36.48
2018-12-26T11:04:31.183Z,33.37
2018-12-26T11:07:00.333Z,32.83
2018-12-26T11:09:29.329Z,32.43
2018-12-26T11:11:58.247Z,33.70
2018-12-26T11:14:27.418Z,33.30
2018-12-26T11:16:56.859Z,32.13
2018-12-26T11:19:25.179Z,31.50
2018-12-26T11:21:53.506Z,31.55
2018-12-26T11:24:21.893Z,29.77
2018-12-26T11:26:50.306Z,30.65
2018-12-26T11:29:19.034Z,26.90
2018-12-26T11:31:47.520Z,31.60
2018-12-26T11:34:15.865Z,30.83
2018-12-26T11:36:44.340Z,27.60
2018-12-26T11:39:12.652Z,31.50
2018-12-26T11:41:40.998Z,32.33
2018-12-26T11:44:09.543Z,28.07
2018-12-26T11:46:37.892Z,40.27
2018-12-26T11:49:06.232Z,30.83
2018-12-26T11:51:34.615Z,31.60
2018-12-26T11:54:02.933Z,25.10
2018-12-26T11:56:31.303Z,27.20
2018-12-26T11:58:59.598Z,29.33
2018-12-26T12:01:28.026Z,25.00
2018-12-26T12:03:56.437Z,26.00
2018-12-26T12:06:24.832Z,22.17
2018-12-26T12:08:53.174Z,26.53
2018-12-26T12:11:21.587Z,22.60
2018-12-26T12:13:49.981Z,27.77
2018-12-26T12:16:18.378Z,30.30
2018-12-26T12:18:46.825Z,28.57
2018-12-26T12:21:15.262Z,32.33
2018-12-26T12:23:43.716Z,26.07
2018-12-26T12:26:12.134Z,22.17
2018-12-26T12:28:40.489Z,27.20
2018-12-26T12:31:09.109Z,23.60
2018-12-26T12:33:37.434Z,22.87
2018-12-26T12:36:05.866Z,25.37
2018-12-26T12:38:35.957Z,27.63
2018-12-26T12:41:04.348Z,29.30
2018-12-26T12:43:32.715Z,26.50
2018-12-26T12:46:01.060Z,26.30
2018-12-26T12:48:29.397Z,28.13
2018-12-26T12:50:57.714Z,27.97
2018-12-26T12:53:26.058Z,26.48
2018-12-26T12:55:54.396Z,27.20
2018-12-26T12:58:22.885Z,26.20
2018-12-26T13:00:51.241Z,23.50
2018-12-26T13:03:19.584Z,24.87
2018-12-26T13:05:47.914Z,25.00
2018-12-26T13:08:16.261Z,25.95
2018-12-26T13:10:44.718Z,23.20
2018-12-26T13:13:13.065Z,27.20
2018-12-26T13:15:41.410Z,26.30
2018-12-26T13:18:09.879Z,25.77
2018-12-26T13:20:38.200Z,24.53
2018-12-26T13:23:06.554Z,27.13
2018-12-26T13:25:34.886Z,28.70
2018-12-26T13:28:03.236Z,27.57
2018-12-26T13:30:31.553Z,28.63
2018-12-26T13:32:59.889Z,32.67
2018-12-26T13:35:28.232Z,28.63
2018-12-26T13:37:56.562Z,26.07
2018-12-26T13:40:24.910Z,26.93
2018-12-26T13:42:53.324Z,28.00
2018-12-26T13:45:21.661Z,25.47
2018-12-26T13:47:50.000Z,32.67
2018-12-26T13:50:18.381Z,32.27
2018-12-26T13:52:46.702Z,22.93
2018-12-26T13:55:15.118Z,22.40
2018-12-26T13:57:43.455Z,28.73
2018-12-26T14:00:11.908Z,23.80
2018-12-26T14:02:40.252Z,28.07
2018-12-26T14:05:09.786Z,23.70
2018-12-26T14:07:38.199Z,24.70
2018-12-26T14:10:09.445Z,26.70
2018-12-26T14:12:37.767Z,23.25
2018-12-26T14:15:08.849Z,24.23
2018-12-26T14:17:37.156Z,25.57
2018-12-26T14:20:06.838Z,27.87
2018-12-26T14:22:35.157Z,27.83
2018-12-26T14:25:04.479Z,28.63
2018-12-26T14:27:32.779Z,27.27
2018-12-26T14:30:01.273Z,25.80
2018-12-26T14:32:29.584Z,28.07
2018-12-26T14:34:57.968Z,34.15
2018-12-26T14:37:26.316Z,28.97
2018-12-26T14:39:54.742Z,31.23
2018-12-26T14:42:24.149Z,34.00
2018-12-26T14:44:52.666Z,28.83
2018-12-26T14:47:21.071Z,31.75
2018-12-26T14:49:49.621Z,33.20
2018-12-26T14:52:17.942Z,35.10
2018-12-26T14:54:46.291Z,31.27
2018-12-26T14:57:14.606Z,33.97
2018-12-26T14:59:43.033Z,31.37
2018-12-26T15:02:11.467Z,37.83
2018-12-26T15:04:39.809Z,37.15
2018-12-26T15:07:08.762Z,40.17
2018-12-26T15:09:37.613Z,30.03
2018-12-26T15:12:05.969Z,30.03
2018-12-26T15:14:34.325Z,29.37
2018-12-26T15:17:03.573Z,30.05
2018-12-26T15:19:31.877Z,34.77
2018-12-26T15:22:00.262Z,28.83
2018-12-26T15:24:28.609Z,34.23
2018-12-26T15:26:56.986Z,28.60
2018-12-26T15:29:25.333Z,34.50
2018-12-26T15:31:53.709Z,32.07
2018-12-26T15:34:22.018Z,33.23
2018-12-26T15:36:50.428Z,34.70
2018-12-26T15:39:18.801Z,33.90
2018-12-26T15:41:47.120Z,37.83
2018-12-26T15:44:15.437Z,38.50
2018-12-26T15:46:43.797Z,33.33
2018-12-26T15:49:12.316Z,34.50
2018-12-26T15:51:40.642Z,36.87
2018-12-26T15:54:08.986Z,40.57
2018-12-26T15:56:37.326Z,30.13
2018-12-26T15:59:05.652Z,44.27
2018-12-26T16:01:34.019Z,36.23
2018-12-26T16:04:02.356Z,40.90
2018-12-26T16:06:30.702Z,34.83
2018-12-26T16:08:59.154Z,33.90
2018-12-26T16:11:27.539Z,35.80
2018-12-26T16:13:55.888Z,31.57
2018-12-26T16:16:25.158Z,38.23
2018-12-26T16:18:53.510Z,34.50
2018-12-26T16:21:21.849Z,32.45
2018-12-26T16:23:50.193Z,34.03
2018-12-26T16:26:18.505Z,35.27
2018-12-26T16:28:46.833Z,33.47
2018-12-26T16:31:15.523Z,31.95
2018-12-26T16:33:43.897Z,38.10
2018-12-26T16:36:12.982Z,28.92
2018-12-26T16:38:41.545Z,34.67
2018-12-26T16:41:10.385Z,29.37
2018-12-26T16:43:38.727Z,30.90
2018-12-26T16:46:07.207Z,34.47
2018-12-26T16:48:35.532Z,32.13
2018-12-26T16:51:04.568Z,36.77
2018-12-26T16:53:32.918Z,32.90
2018-12-26T16:56:01.232Z,31.00
2018-12-26T16:58:29.628Z,34.90
2018-12-26T17:00:58.018Z,35.47
2018-12-26T17:03:26.459Z,35.13
2018-12-26T17:05:54.775Z,31.33
2018-12-26T17:08:23.121Z,38.63
2018-12-26T17:10:51.453Z,38.83
2018-12-26T17:13:19.806Z,37.20
2018-12-26T17:15:48.628Z,36.77
2018-12-26T17:18:17.158Z,40.47
2018-12-26T17:20:45.462Z,38.97
2018-12-26T17:23:14.201Z,39.43
2018-12-26T17:25:42.509Z,42.43
2018-12-26T17:28:11.048Z,42.70
2018-12-26T17:30:39.345Z,38.50
2018-12-26T17:33:07.762Z,39.90
2018-12-26T17:35:36.119Z,40.37
2018-12-26T17:38:04.461Z,33.73
2018-12-26T17:40:32.807Z,43.15
2018-12-26T17:43:01.997Z,41.48
2018-12-26T17:45:32.291Z,40.27
2018-12-26T17:48:00.669Z,37.80
2018-12-26T17:50:38.196Z,36.73
2018-12-26T17:53:08.935Z,42.97
2018-12-26T17:55:44.691Z,41.83
2018-12-26T17:58:13.438Z,37.47
2018-12-26T18:00:42.174Z,43.53
2018-12-26T18:03:10.511Z,38.03
2018-12-26T18:05:38.853Z,38.10
2018-12-26T18:08:07.177Z,36.70
2018-12-26T18:10:35.528Z,39.70
2018-12-26T18:13:03.864Z,39.10
2018-12-26T18:15:32.200Z,40.90
2018-12-26T18:18:00.538Z,37.63
2018-12-26T18:20:28.885Z,41.00
2018-12-26T18:22:57.213Z,33.27
2018-12-26T18:25:25.899Z,36.03
2018-12-26T18:27:54.224Z,35.53
2018-12-26T18:30:22.570Z,29.27
2018-12-26T18:32:50.907Z,33.30
2018-12-26T18:35:19.294Z,33.60
2018-12-26T18:37:47.643Z,37.50
2018-12-26T18:40:17.181Z,38.37
2018-12-26T18:42:45.487Z,37.80
2018-12-26T18:45:14.605Z,38.50
2018-12-26T18:47:42.995Z,34.63
2018-12-26T18:50:11.364Z,36.23
2018-12-26T18:52:39.691Z,38.27
2018-12-26T18:55:08.176Z,43.03
2018-12-26T18:57:36.534Z,35.60
2018-12-26T19:00:06.419Z,40.33
2018-12-26T19:02:34.772Z,36.98
2018-12-26T19:05:03.321Z,39.03
2018-12-26T19:07:31.673Z,48.43
2018-12-26T19:09:59.998Z,43.57
2018-12-26T19:12:28.364Z,44.60
2018-12-26T19:14:57.053Z,49.85
2018-12-26T19:17:25.413Z,42.47
2018-12-26T19:19:53.746Z,40.17
2018-12-26T19:22:22.081Z,50.37
2018-12-26T19:24:50.422Z,53.40
2018-12-26T19:27:18.800Z,42.30
2018-12-26T19:29:47.173Z,52.90
2018-12-26T19:32:17.169Z,52.43
2018-12-26T19:34:45.515Z,52.53
2018-12-26T19:37:14.564Z,45.67
2018-12-26T19:39:43.040Z,52.73
2018-12-26T19:42:11.374Z,51.67
2018-12-26T19:45:06.195Z,53.30
2018-12-26T19:47:34.539Z,57.43
2018-12-26T19:50:05.130Z,42.43
2018-12-26T19:52:33.291Z,54.10
2018-12-26T19:55:01.618Z,46.68
2018-12-26T19:57:29.967Z,57.90
2018-12-26T19:59:58.290Z,54.27
2018-12-26T20:02:26.698Z,49.90
2018-12-26T20:04:55.028Z,49.23
2018-12-26T20:07:23.375Z,53.27
2018-12-26T20:09:51.696Z,47.23
2018-12-26T20:12:20.085Z,44.30
2018-12-26T20:14:49.013Z,46.48
2018-12-26T20:17:17.383Z,46.17
2018-12-26T20:19:45.726Z,60.57
2018-12-26T20:22:14.400Z,54.85
2018-12-26T20:24:42.734Z,59.80
2018-12-26T20:27:11.052Z,43.90
2018-12-26T20:29:39.415Z,48.43
2018-12-26T20:32:07.901Z,53.33
2018-12-26T20:34:36.268Z,63.40
2018-12-26T20:37:04.796Z,45.40
2018-12-26T20:39:33.146Z,47.05
2018-12-26T20:42:01.776Z,52.80
2018-12-26T20:44:30.201Z,50.40
2018-12-26T20:46:58.548Z,49.53
2018-12-26T20:49:26.946Z,52.53
2018-12-26T20:51:55.307Z,54.35
2018-12-26T20:54:23.665Z,51.77
2018-12-26T20:56:51.976Z,43.90
2018-12-26T20:59:21.238Z,42.55
2018-12-26T21:01:49.556Z,40.37
2018-12-26T21:04:17.888Z,48.97
2018-12-26T21:06:46.577Z,43.05
2018-12-26T21:09:15.190Z,42.20
2018-12-26T21:11:43.905Z,50.90
2018-12-26T21:14:12.255Z,52.33
2018-12-26T21:16:40.688Z,50.93
2018-12-26T21:19:09.049Z,50.73
2018-12-26T21:21:37.458Z,51.30
2018-12-26T21:24:06.012Z,49.00
2018-12-26T21:26:34.383Z,57.17
2018-12-26T21:29:02.736Z,51.07
2018-12-26T21:31:32.219Z,48.90
2018-12-26T21:34:01.409Z,53.07
2018-12-26T21:36:29.785Z,58.37
2018-12-26T21:38:58.156Z,50.50
2018-12-26T21:41:26.497Z,53.20
2018-12-26T21:43:54.843Z,52.60
2018-12-26T21:46:23.295Z,52.10
2018-12-26T21:48:51.613Z,56.28
2018-12-26T21:51:20.239Z,50.07
2018-12-26T21:53:48.585Z,50.40
2018-12-26T21:56:17.703Z,49.97
2018-12-26T21:58:47.091Z,51.30
2018-12-26T22:01:15.770Z,55.43
2018-12-26T22:03:44.109Z,61.65
2018-12-26T22:06:13.740Z,48.80
2018-12-26T22:08:42.064Z,56.40
2018-12-26T22:11:10.422Z,47.77
2018-12-26T22:13:38.766Z,50.70
2018-12-26T22:16:07.129Z,55.70
2018-12-26T22:18:35.460Z,51.97
2018-12-26T22:21:03.807Z,53.97
2018-12-26T22:23:32.159Z,52.40
2018-12-26T22:26:00.507Z,47.13
2018-12-26T22:28:28.916Z,53.70
2018-12-26T22:30:57.321Z,46.53
2018-12-26T22:33:26.522Z,59.42
2018-12-26T22:35:54.842Z,49.63
2018-12-26T22:38:23.189Z,55.83
2018-12-26T22:40:51.550Z,50.10
2018-12-26T22:43:19.908Z,43.07
2018-12-26T22:45:48.254Z,58.07
2018-12-26T22:48:16.589Z,53.80
2018-12-26T22:50:44.938Z,51.73
2018-12-26T22:53:13.956Z,55.20
2018-12-26T22:55:42.275Z,48.20
2018-12-26T22:58:10.680Z,44.47
2018-12-26T23:00:41.751Z,45.33
2018-12-26T23:03:10.216Z,56.27
2018-12-26T23:05:38.580Z,50.60
2018-12-26T23:08:06.939Z,48.93
2018-12-26T23:10:35.280Z,48.53
2018-12-26T23:13:03.635Z,50.13
2018-12-26T23:15:31.968Z,52.83
2018-12-26T23:18:00.315Z,48.07
2018-12-26T23:20:28.641Z,59.23
2018-12-26T23:22:57.002Z,47.50
2018-12-26T23:25:25.332Z,46.10
2018-12-26T23:27:53.684Z,52.40
2018-12-26T23:30:22.018Z,52.67
2018-12-26T23:32:50.355Z,52.77
2018-12-26T23:35:19.381Z,42.03
2018-12-26T23:37:47.686Z,37.07
2018-12-26T23:40:18.145Z,39.10
2018-12-26T23:42:46.478Z,48.50
2018-12-26T23:45:15.878Z,52.57
2018-12-26T23:47:44.210Z,50.98
2018-12-26T23:50:12.538Z,51.73
2018-12-26T23:52:40.878Z,37.03
2018-12-26T23:55:09.214Z,43.33
2018-12-26T23:57:37.541Z,45.13
